Time;durP1;ratioP1;P1;durP2;ratioP2;P2;SDS_P1;SDS_P2;PMS_P1;PMS_P2;Temp;Humidity;BMP_temperature;BMP_pressure;BME280_temperature;BME280_humidity;BME280_pressure;Samples;Min_cycle;Max_cycle;Signal;HPM_P1;HPM_P2
2023/08/19 00:01:41;;;;;;;5.13;4.73;;;18.90;99.90;;;;;;5076663;28;20518;-81
2023/08/19 00:04:08;;;;;;;3.77;3.47;;;18.90;99.90;;;;;;5085911;28;20445;-81
2023/08/19 00:06:40;;;;;;;4.27;3.97;;;18.90;99.90;;;;;;5072897;28;20965;-80
2023/08/19 00:09:08;;;;;;;5.47;4.97;;;18.90;99.90;;;;;;5075534;28;20909;-80
2023/08/19 00:11:38;;;;;;;4.30;3.93;;;18.80;99.90;;;;;;5068927;28;20521;-81
2023/08/19 00:14:06;;;;;;;3.90;3.53;;;18.70;99.90;;;;;;5079893;28;20455;-81
2023/08/19 00:16:33;;;;;;;7.40;4.83;;;18.60;99.90;;;;;;5077246;28;20455;-81
2023/08/19 00:19:01;;;;;;;4.97;4.57;;;18.60;99.90;;;;;;5075542;28;20501;-80
2023/08/19 00:21:28;;;;;;;3.87;3.67;;;18.70;99.90;;;;;;5076606;28;20543;-81
2023/08/19 00:23:56;;;;;;;4.20;3.90;;;18.70;99.90;;;;;;5070332;28;20460;-81
2023/08/19 00:26:24;;;;;;;6.20;4.17;;;18.60;99.90;;;;;;5070306;28;20956;-82
2023/08/19 00:28:53;;;;;;;3.80;3.50;;;18.60;99.90;;;;;;5074237;28;21008;-80
2023/08/19 00:31:20;;;;;;;4.47;4.07;;;18.60;99.90;;;;;;5076441;28;21035;-81
2023/08/19 00:33:47;;;;;;;5.10;4.60;;;18.70;99.90;;;;;;5078004;28;20491;-80
2023/08/19 00:36:14;;;;;;;8.90;5.67;;;18.60;99.90;;;;;;5086818;28;20562;-80
2023/08/19 00:38:41;;;;;;;5.43;5.03;;;18.60;99.90;;;;;;5075227;28;20924;-80
2023/08/19 00:41:08;;;;;;;3.07;2.87;;;18.60;99.90;;;;;;5076802;28;20576;-80
2023/08/19 00:43:36;;;;;;;3.80;3.37;;;18.50;99.90;;;;;;5086457;28;20940;-80
2023/08/19 00:46:07;;;;;;;3.30;3.00;;;18.50;99.90;;;;;;5081519;28;21214;-80
2023/08/19 00:48:34;;;;;;;4.57;4.27;;;18.50;99.90;;;;;;5080565;28;20519;-81
2023/08/19 00:51:02;;;;;;;4.33;3.93;;;18.50;99.90;;;;;;5081117;28;20524;-81
2023/08/19 00:53:29;;;;;;;6.83;4.20;;;18.50;99.90;;;;;;5085790;28;20463;-81
2023/08/19 00:55:57;;;;;;;4.33;4.10;;;18.50;99.90;;;;;;5086119;28;20500;-81
2023/08/19 00:58:24;;;;;;;5.30;4.80;;;18.40;99.90;;;;;;5075891;28;20499;-81
2023/08/19 01:00:53;;;;;;;3.83;3.27;;;18.40;99.90;;;;;;5077046;28;20538;-80
2023/08/19 01:03:21;;;;;;;4.50;4.13;;;18.40;99.90;;;;;;5081666;28;21160;-81
2023/08/19 01:06:00;;;;;;;4.60;4.20;;;18.40;99.90;;;;;;5072895;28;20452;-81
2023/08/19 01:08:40;;;;;;;5.63;4.17;;;18.50;99.90;;;;;;5086521;28;20551;-81
2023/08/19 01:11:15;;;;;;;4.60;4.20;;;18.40;99.90;;;;;;5075912;28;20945;-82
2023/08/19 01:13:49;;;;;;;4.43;4.10;;;18.40;99.90;;;;;;5081091;28;20878;-81
2023/08/19 01:16:22;;;;;;;4.10;3.80;;;18.40;99.90;;;;;;5076991;28;20470;-80
2023/08/19 01:18:52;;;;;;;3.60;3.30;;;18.30;99.90;;;;;;5077746;28;20491;-81
2023/08/19 01:21:20;;;;;;;5.07;4.20;;;18.30;99.90;;;;;;5069399;28;20490;-81
2023/08/19 01:23:49;;;;;;;5.70;4.20;;;18.20;99.90;;;;;;5075895;28;20518;-80
2023/08/19 01:26:19;;;;;;;4.33;4.03;;;18.20;99.90;;;;;;5068249;28;20472;-81
2023/08/19 01:28:47;;;;;;;3.57;3.13;;;18.10;99.90;;;;;;5073562;28;20483;-81
2023/08/19 01:31:14;;;;;;;3.80;3.50;;;18.10;99.90;;;;;;5066990;28;20472;-81
2023/08/19 01:33:41;;;;;;;3.53;3.20;;;18.00;99.90;;;;;;5084105;28;20495;-81
2023/08/19 01:36:15;;;;;;;3.80;3.50;;;18.00;99.90;;;;;;5086091;28;20471;-81
2023/08/19 01:38:47;;;;;;;3.03;2.83;;;18.00;99.90;;;;;;5081491;28;20453;-81
2023/08/19 01:41:16;;;;;;;4.90;4.60;;;18.00;99.90;;;;;;5074584;28;20554;-81
2023/08/19 01:43:46;;;;;;;5.03;3.23;;;17.90;99.90;;;;;;5085912;28;20449;-81
2023/08/19 01:46:13;;;;;;;3.90;3.60;;;17.90;99.90;;;;;;5078918;28;20552;-80
2023/08/19 01:48:40;;;;;;;4.10;3.80;;;18.00;99.90;;;;;;5083134;28;20563;-79
2023/08/19 01:51:07;;;;;;;4.33;3.57;;;17.90;99.90;;;;;;5085237;28;20494;-81
2023/08/19 01:53:34;;;;;;;4.13;3.73;;;17.80;99.90;;;;;;5082312;28;20499;-80
2023/08/19 01:56:01;;;;;;;5.00;4.70;;;17.90;99.90;;;;;;5077837;28;20524;-81
2023/08/19 01:58:28;;;;;;;2.80;2.60;;;17.80;99.90;;;;;;5086299;28;20919;-80
2023/08/19 02:00:56;;;;;;;9.40;4.33;;;17.80;99.90;;;;;;5080111;28;20546;-81
2023/08/19 02:03:23;;;;;;;4.23;3.83;;;17.90;99.90;;;;;;5081807;28;20550;-80
2023/08/19 02:05:50;;;;;;;5.70;4.33;;;17.90;99.90;;;;;;5074212;28;21055;-81
2023/08/19 02:08:17;;;;;;;5.30;4.80;;;17.90;99.90;;;;;;5079483;28;20565;-81
2023/08/19 02:10:45;;;;;;;5.57;3.73;;;17.90;99.90;;;;;;5065838;28;20456;-80
2023/08/19 02:13:12;;;;;;;3.90;3.60;;;17.80;99.90;;;;;;5075804;28;21018;-81
2023/08/19 02:15:39;;;;;;;5.03;4.53;;;17.70;99.90;;;;;;5076799;28;20449;-81
2023/08/19 02:18:08;;;;;;;5.37;3.87;;;17.60;99.90;;;;;;5076466;28;20878;-81
2023/08/19 02:20:35;;;;;;;6.53;4.30;;;17.50;99.90;;;;;;5069460;28;21138;-81
2023/08/19 02:23:02;;;;;;;4.80;4.40;;;17.60;99.90;;;;;;5073861;28;20900;-80
2023/08/19 02:25:28;;;;;;;5.33;4.27;;;17.50;99.90;;;;;;5074473;28;20464;-81
2023/08/19 02:27:55;;;;;;;5.03;3.87;;;17.40;99.90;;;;;;5076980;28;20561;-81
2023/08/19 02:30:22;;;;;;;2.80;2.60;;;17.50;99.90;;;;;;5078325;28;20536;-81
2023/08/19 02:32:49;;;;;;;7.50;3.63;;;17.40;99.90;;;;;;5083813;28;20525;-81
2023/08/19 02:35:18;;;;;;;3.17;2.87;;;17.50;99.90;;;;;;5083300;28;20503;-81
2023/08/19 02:37:45;;;;;;;3.37;3.07;;;17.50;99.90;;;;;;5076820;28;21036;-80
2023/08/19 02:40:12;;;;;;;4.17;3.77;;;17.60;99.90;;;;;;5064913;28;20532;-80
2023/08/19 02:42:39;;;;;;;4.17;3.70;;;17.60;99.90;;;;;;5087677;28;20450;-81
2023/08/19 02:45:07;;;;;;;5.13;4.13;;;17.60;99.90;;;;;;5076618;28;20463;-81
2023/08/19 02:47:34;;;;;;;4.47;3.97;;;17.60;99.90;;;;;;5085265;28;20994;-81
2023/08/19 02:50:01;;;;;;;5.70;5.20;;;17.50;99.90;;;;;;5086345;28;20516;-80
2023/08/19 02:52:29;;;;;;;3.87;3.57;;;17.50;99.90;;;;;;5079069;28;20448;-81
2023/08/19 02:54:56;;;;;;;4.03;3.73;;;17.50;99.90;;;;;;5088222;28;20446;-80
2023/08/19 02:57:23;;;;;;;5.80;4.40;;;17.50;99.90;;;;;;5082188;28;20510;-81
2023/08/19 02:59:50;;;;;;;5.43;4.80;;;17.50;99.90;;;;;;5085954;28;20463;-81
2023/08/19 03:02:17;;;;;;;4.20;3.90;;;17.50;99.90;;;;;;5088029;28;20452;-82
2023/08/19 03:04:44;;;;;;;4.13;3.83;;;17.50;99.90;;;;;;5087813;28;20443;-82
2023/08/19 03:07:11;;;;;;;5.83;5.10;;;17.50;99.90;;;;;;5076373;28;20448;-80
2023/08/19 03:09:39;;;;;;;4.70;4.17;;;17.50;99.90;;;;;;5085658;28;20574;-80
2023/08/19 03:12:07;;;;;;;5.20;4.80;;;17.50;99.90;;;;;;5086783;28;20459;-81
2023/08/19 03:14:34;;;;;;;5.40;3.57;;;17.40;99.90;;;;;;5090362;28;20859;-80
2023/08/19 03:17:02;;;;;;;5.10;4.60;;;17.30;99.90;;;;;;5091924;28;20537;-81
2023/08/19 03:19:29;;;;;;;5.07;4.40;;;17.30;99.90;;;;;;5081114;28;21059;-82
2023/08/19 03:21:56;;;;;;;5.43;5.03;;;17.30;99.90;;;;;;5076354;28;20465;-81
2023/08/19 03:24:23;;;;;;;5.00;4.60;;;17.30;99.90;;;;;;5072700;28;20451;-81
2023/08/19 03:26:51;;;;;;;6.07;5.57;;;17.20;99.90;;;;;;5072973;28;21027;-81
2023/08/19 03:29:18;;;;;;;6.20;4.80;;;17.30;99.90;;;;;;5085725;28;20546;-82
2023/08/19 03:31:45;;;;;;;4.77;4.37;;;17.20;99.90;;;;;;5085131;28;20440;-82
2023/08/19 03:34:11;;;;;;;5.57;5.00;;;17.20;99.90;;;;;;5088504;28;21123;-81
2023/08/19 03:36:38;;;;;;;5.63;5.20;;;17.20;99.90;;;;;;5084564;28;20482;-82
2023/08/19 03:39:06;;;;;;;5.63;5.10;;;17.20;99.90;;;;;;5079921;28;20954;-82
2023/08/19 03:41:33;;;;;;;4.23;3.77;;;17.20;99.90;;;;;;5086622;28;20536;-81
2023/08/19 03:44:01;;;;;;;7.43;6.00;;;17.10;99.90;;;;;;5085087;28;20468;-82
2023/08/19 03:46:28;;;;;;;7.77;5.90;;;17.20;99.90;;;;;;5084392;28;20498;-81
2023/08/19 03:48:55;;;;;;;6.33;5.83;;;17.20;99.90;;;;;;5088587;28;20514;-81
2023/08/19 03:51:22;;;;;;;7.30;6.70;;;17.20;99.90;;;;;;5081065;28;20518;-81
2023/08/19 03:53:49;;;;;;;5.90;5.30;;;17.30;99.90;;;;;;5082235;28;20441;-82
2023/08/19 03:56:15;;;;;;;6.53;5.80;;;17.30;99.90;;;;;;5076745;28;21326;-83
2023/08/19 03:58:43;;;;;;;6.10;5.60;;;17.30;99.90;;;;;;5079962;28;20473;-81
2023/08/19 04:01:11;;;;;;;4.90;4.50;;;17.20;99.90;;;;;;5087691;28;20505;-82
2023/08/19 04:03:38;;;;;;;5.93;5.00;;;17.20;99.90;;;;;;5075347;28;21016;-83
2023/08/19 04:06:05;;;;;;;9.20;4.57;;;17.20;99.90;;;;;;5075015;28;20580;-82
2023/08/19 04:08:32;;;;;;;6.23;5.63;;;17.20;99.90;;;;;;5082914;28;20522;-82
2023/08/19 04:11:05;;;;;;;5.10;4.70;;;17.10;99.90;;;;;;5076913;28;20483;-82
2023/08/19 04:13:32;;;;;;;6.47;5.33;;;17.20;99.90;;;;;;5076683;28;20910;-82
2023/08/19 04:16:03;;;;;;;5.23;4.83;;;17.20;99.90;;;;;;5075762;28;20491;-82
2023/08/19 04:18:32;;;;;;;5.43;4.97;;;17.20;99.90;;;;;;5073942;28;20439;-81
2023/08/19 04:21:03;;;;;;;7.17;4.57;;;17.30;99.90;;;;;;5071245;28;20520;-82
2023/08/19 04:23:30;;;;;;;5.33;4.93;;;17.20;99.90;;;;;;5078170;28;20448;-82
2023/08/19 04:25:57;;;;;;;3.70;3.40;;;17.20;99.90;;;;;;5074416;28;20491;-81
2023/08/19 04:28:25;;;;;;;6.93;4.43;;;17.10;99.90;;;;;;5078645;28;20578;-81
2023/08/19 04:30:52;;;;;;;4.97;3.50;;;17.10;99.90;;;;;;5070399;28;20498;-83
2023/08/19 04:33:19;;;;;;;4.20;3.80;;;17.10;99.90;;;;;;5073659;28;20497;-81
2023/08/19 04:35:49;;;;;;;5.40;4.97;;;17.20;99.90;;;;;;5089117;28;20545;-81
2023/08/19 04:38:16;;;;;;;3.47;3.23;;;17.20;99.90;;;;;;5086786;28;20846;-81
2023/08/19 04:40:44;;;;;;;4.40;4.10;;;17.20;99.90;;;;;;5080186;28;20435;-81
2023/08/19 04:43:12;;;;;;;5.20;3.50;;;17.30;99.90;;;;;;5085754;28;20493;-81
2023/08/19 04:45:39;;;;;;;4.60;4.30;;;17.30;99.90;;;;;;5078318;28;20554;-80
2023/08/19 04:48:07;;;;;;;9.53;4.87;;;17.40;99.90;;;;;;5085189;28;20470;-80
2023/08/19 04:50:34;;;;;;;5.67;5.07;;;17.40;99.90;;;;;;5086744;28;20435;-81
2023/08/19 04:53:03;;;;;;;3.67;3.37;;;17.50;99.90;;;;;;5079033;28;20502;-81
2023/08/19 04:55:30;;;;;;;4.10;3.80;;;17.70;99.90;;;;;;5071801;28;20487;-82
2023/08/19 04:57:57;;;;;;;4.60;4.20;;;17.80;99.90;;;;;;5085413;28;20508;-81
2023/08/19 05:00:24;;;;;;;6.80;5.43;;;17.90;99.90;;;;;;5084144;28;20609;-82
2023/08/19 05:02:51;;;;;;;5.40;4.97;;;17.90;99.90;;;;;;5078637;28;20444;-82
2023/08/19 05:05:18;;;;;;;5.30;4.80;;;17.80;99.90;;;;;;5078453;28;20443;-81
2023/08/19 05:07:45;;;;;;;5.83;5.37;;;17.80;99.90;;;;;;5083223;28;20520;-81
2023/08/19 05:10:14;;;;;;;6.60;6.00;;;17.80;99.90;;;;;;5087302;28;20536;-82
2023/08/19 05:12:41;;;;;;;5.00;4.60;;;18.00;99.90;;;;;;5080706;28;20439;-82
2023/08/19 05:15:10;;;;;;;6.10;5.50;;;18.20;99.90;;;;;;5083992;28;20492;-82
2023/08/19 05:17:37;;;;;;;6.57;5.93;;;18.20;99.90;;;;;;5079996;28;20535;-83
2023/08/19 05:20:05;;;;;;;6.53;5.80;;;18.40;99.90;;;;;;5072069;28;20500;-82
2023/08/19 05:22:32;;;;;;;5.47;4.97;;;18.50;99.90;;;;;;5068026;28;20983;-81
2023/08/19 05:24:58;;;;;;;6.40;5.03;;;18.60;99.90;;;;;;5074081;28;20565;-82
2023/08/19 05:27:27;;;;;;;5.60;5.20;;;18.70;99.90;;;;;;5070331;28;20510;-82
2023/08/19 05:29:54;;;;;;;4.80;4.50;;;18.70;99.90;;;;;;5078128;28;20581;-82
2023/08/19 05:32:21;;;;;;;5.77;5.20;;;18.90;99.90;;;;;;5081916;28;20450;-81
2023/08/19 05:34:47;;;;;;;5.83;5.33;;;18.90;99.90;;;;;;5079560;28;20516;-82
2023/08/19 05:37:14;;;;;;;7.00;5.90;;;18.90;99.90;;;;;;5076032;28;20465;-82
2023/08/19 05:39:41;;;;;;;5.33;4.90;;;18.90;99.90;;;;;;5087865;28;20443;-83
2023/08/19 05:42:09;;;;;;;5.50;5.00;;;19.00;99.90;;;;;;5080423;28;20541;-81
2023/08/19 05:44:37;;;;;;;4.00;3.70;;;19.00;99.90;;;;;;5071294;28;20464;-81
2023/08/19 05:47:04;;;;;;;4.67;4.27;;;19.10;99.90;;;;;;5077548;28;20498;-82
2023/08/19 05:49:31;;;;;;;6.00;5.43;;;19.20;99.90;;;;;;5080202;28;20482;-84
2023/08/19 05:51:58;;;;;;;7.40;5.27;;;19.40;99.90;;;;;;5075773;28;20934;-83
2023/08/19 05:54:25;;;;;;;4.67;4.27;;;19.40;99.90;;;;;;5072076;28;20623;-82
2023/08/19 05:56:52;;;;;;;4.80;4.47;;;19.60;99.90;;;;;;5068147;28;20507;-82
2023/08/19 05:59:19;;;;;;;6.00;5.50;;;19.40;99.90;;;;;;5077703;28;20526;-82
2023/08/19 06:01:47;;;;;;;4.37;4.07;;;19.50;99.90;;;;;;5077371;28;21048;-81
2023/08/19 06:04:15;;;;;;;4.80;4.40;;;19.60;99.90;;;;;;5076498;28;20535;-82
2023/08/19 06:06:42;;;;;;;4.90;4.17;;;19.60;99.90;;;;;;5072456;28;20542;-83
2023/08/19 06:09:09;;;;;;;4.57;4.17;;;19.80;99.90;;;;;;5076070;28;21319;-81
2023/08/19 06:11:48;;;;;;;6.00;5.27;;;20.00;99.90;;;;;;5075429;28;20507;-83
2023/08/19 06:14:15;;;;;;;5.27;4.80;;;20.30;99.90;;;;;;5071306;28;21005;-79
2023/08/19 06:16:42;;;;;;;5.67;4.97;;;20.50;99.90;;;;;;5076565;28;21472;-81
2023/08/19 06:19:11;;;;;;;7.40;6.73;;;20.60;99.90;;;;;;5079053;28;20463;-83
2023/08/19 06:21:38;;;;;;;5.63;5.10;;;20.50;99.90;;;;;;5087586;28;20464;-83
2023/08/19 06:24:06;;;;;;;6.03;5.63;;;20.60;99.90;;;;;;5070815;28;20498;-84
2023/08/19 06:26:33;;;;;;;5.30;4.67;;;20.60;99.90;;;;;;5085778;28;20921;-82
2023/08/19 06:29:00;;;;;;;7.00;6.40;;;20.70;99.90;;;;;;5080901;28;20526;-81
2023/08/19 06:31:27;;;;;;;7.33;6.63;;;20.70;99.90;;;;;;5079575;28;20470;-79
2023/08/19 06:33:55;;;;;;;5.33;4.83;;;20.90;99.90;;;;;;5079574;28;20454;-81
2023/08/19 06:36:28;;;;;;;5.30;4.93;;;21.10;99.90;;;;;;5078446;28;20490;-79
2023/08/19 06:39:03;;;;;;;5.07;4.60;;;21.30;99.90;;;;;;5076316;28;20537;-83
2023/08/19 06:41:34;;;;;;;5.60;5.20;;;21.40;99.90;;;;;;5080681;28;20473;-80
2023/08/19 06:44:03;;;;;;;5.73;5.30;;;21.40;99.90;;;;;;5074941;28;20902;-80
2023/08/19 06:46:31;;;;;;;5.67;5.27;;;21.30;99.90;;;;;;5077872;28;20537;-80
2023/08/19 06:48:59;;;;;;;5.30;4.80;;;21.40;99.90;;;;;;5079552;28;20589;-81
2023/08/19 06:51:28;;;;;;;5.60;5.10;;;21.40;99.90;;;;;;5073419;28;20473;-80
2023/08/19 06:53:56;;;;;;;5.10;4.60;;;21.30;99.90;;;;;;5081155;28;20526;-80
2023/08/19 06:56:29;;;;;;;6.27;5.77;;;21.60;99.90;;;;;;5074497;28;20561;-82
2023/08/19 06:59:02;;;;;;;6.43;5.93;;;21.90;99.90;;;;;;5076625;28;20540;-82
2023/08/19 07:01:32;;;;;;;5.37;5.00;;;21.90;99.90;;;;;;5078756;28;20508;-80
2023/08/19 07:04:00;;;;;;;5.23;4.73;;;22.10;99.90;;;;;;5078082;28;20447;-81
2023/08/19 07:06:32;;;;;;;5.03;4.53;;;22.20;99.90;;;;;;5070747;28;20509;-82
2023/08/19 07:09:00;;;;;;;7.77;6.07;;;22.50;99.90;;;;;;5080601;28;20568;-82
2023/08/19 07:11:28;;;;;;;5.80;5.23;;;22.60;99.90;;;;;;5076163;28;20464;-80
2023/08/19 07:13:56;;;;;;;6.60;6.00;;;22.60;99.90;;;;;;5074696;28;20488;-80
2023/08/19 07:16:24;;;;;;;4.70;4.30;;;22.70;99.90;;;;;;5079016;28;21270;-81
2023/08/19 07:18:55;;;;;;;5.97;5.47;;;22.90;99.90;;;;;;5075120;28;21179;-81
2023/08/19 07:21:24;;;;;;;4.67;4.37;;;23.00;99.90;;;;;;5079717;28;20468;-81
2023/08/19 07:23:58;;;;;;;5.70;5.20;;;22.90;99.90;;;;;;5077852;28;20526;-80
2023/08/19 07:26:26;;;;;;;6.67;6.07;;;22.90;99.90;;;;;;5088488;28;20535;-79
2023/08/19 07:28:54;;;;;;;5.87;5.23;;;23.30;99.90;;;;;;5082994;28;20512;-80
2023/08/19 07:31:22;;;;;;;5.70;5.20;;;23.30;99.90;;;;;;5084152;28;21026;-80
2023/08/19 07:33:50;;;;;;;7.47;6.60;;;23.40;99.90;;;;;;5081603;28;21001;-80
2023/08/19 07:36:17;;;;;;;6.63;5.40;;;23.40;99.90;;;;;;5076786;28;20472;-81
2023/08/19 07:38:46;;;;;;;5.73;5.33;;;23.50;99.90;;;;;;5076351;28;20465;-80
2023/08/19 07:41:15;;;;;;;7.33;4.80;;;23.60;99.90;;;;;;5081052;28;20445;-83
2023/08/19 07:43:42;;;;;;;4.60;4.30;;;23.80;99.90;;;;;;5078728;28;20999;-80
2023/08/19 07:46:08;;;;;;;6.10;5.60;;;24.10;99.90;;;;;;5082502;28;20511;-81
2023/08/19 07:48:35;;;;;;;5.13;4.83;;;24.20;99.90;;;;;;5076298;28;20447;-82
2023/08/19 07:51:02;;;;;;;5.70;5.20;;;24.10;99.90;;;;;;5080286;28;20482;-81
2023/08/19 07:53:29;;;;;;;6.40;5.87;;;24.20;99.90;;;;;;5076707;28;20447;-82
2023/08/19 07:55:56;;;;;;;5.43;5.03;;;24.10;99.90;;;;;;5073947;28;20460;-82
2023/08/19 07:58:25;;;;;;;6.07;5.67;;;24.30;99.90;;;;;;5078768;28;20962;-82
2023/08/19 08:00:52;;;;;;;5.30;4.90;;;24.20;99.90;;;;;;5076201;28;20495;-82
2023/08/19 08:03:19;;;;;;;5.87;5.47;;;24.30;99.90;;;;;;5068796;28;20451;-81
2023/08/19 08:05:46;;;;;;;7.60;5.80;;;24.20;99.90;;;;;;5079968;28;20851;-81
2023/08/19 08:08:12;;;;;;;5.83;5.30;;;24.20;99.90;;;;;;5073944;28;20493;-82
2023/08/19 08:10:41;;;;;;;5.63;5.23;;;24.30;99.90;;;;;;5080383;28;20487;-80
2023/08/19 08:13:08;;;;;;;5.57;5.07;;;24.50;99.90;;;;;;5071217;28;20548;-81
2023/08/19 08:15:36;;;;;;;5.10;4.70;;;24.50;99.90;;;;;;5070297;28;20525;-81
2023/08/19 08:18:04;;;;;;;6.90;5.10;;;24.80;99.90;;;;;;5082749;28;21014;-82
2023/08/19 08:20:31;;;;;;;7.20;6.60;;;24.80;99.90;;;;;;5077866;28;20520;-81
2023/08/19 08:22:58;;;;;;;4.73;4.27;;;24.60;99.90;;;;;;5080338;28;20489;-85
2023/08/19 08:25:26;;;;;;;5.80;5.30;;;24.70;99.90;;;;;;5087912;28;20535;-81
2023/08/19 08:27:52;;;;;;;5.70;5.30;;;24.70;99.90;;;;;;5077929;28;20540;-82
2023/08/19 08:30:20;;;;;;;6.50;6.00;;;25.00;99.90;;;;;;5082801;28;20485;-81
2023/08/19 08:32:48;;;;;;;6.77;6.27;;;25.10;99.90;;;;;;5095378;28;20879;-83
2023/08/19 08:35:15;;;;;;;5.40;5.00;;;24.90;99.90;;;;;;5085165;28;20463;-82
2023/08/19 08:37:42;;;;;;;5.87;5.47;;;25.00;99.90;;;;;;5082267;28;20478;-81
2023/08/19 08:40:10;;;;;;;6.07;5.60;;;25.10;99.90;;;;;;5079832;28;20519;-81
2023/08/19 08:42:37;;;;;;;4.53;4.23;;;25.30;99.90;;;;;;5090129;28;20463;-80
2023/08/19 08:45:05;;;;;;;4.93;4.60;;;25.30;99.90;;;;;;5087585;28;20540;-76
2023/08/19 08:47:32;;;;;;;7.83;7.10;;;25.30;99.90;;;;;;5092305;28;20478;-79
2023/08/19 08:50:00;;;;;;;5.43;5.00;;;25.20;99.90;;;;;;5084226;28;20475;-79
2023/08/19 08:52:27;;;;;;;5.50;5.00;;;25.30;99.90;;;;;;5070244;28;20488;-79
2023/08/19 08:54:56;;;;;;;5.83;5.43;;;25.50;99.90;;;;;;5074737;28;20546;-84
2023/08/19 08:57:23;;;;;;;5.97;5.43;;;25.60;99.90;;;;;;5081865;28;20499;-79
2023/08/19 08:59:52;;;;;;;4.57;4.27;;;25.40;99.90;;;;;;5080725;28;20488;-79
2023/08/19 09:02:21;;;;;;;8.10;5.73;;;25.20;99.90;;;;;;5069935;28;21052;-79
2023/08/19 09:04:48;;;;;;;6.60;5.97;;;25.20;99.90;;;;;;5077252;28;20495;-79
2023/08/19 09:07:25;;;;;;;4.90;4.50;;;25.50;99.90;;;;;;5074329;28;20973;-79
2023/08/19 09:09:53;;;;;;;5.83;5.43;;;25.90;99.90;;;;;;5066270;28;20544;-79
2023/08/19 09:12:22;;;;;;;6.10;5.50;;;26.10;99.90;;;;;;5065928;28;20523;-79
2023/08/19 09:14:54;;;;;;;7.23;5.73;;;26.10;99.90;;;;;;5074701;28;20464;-79
2023/08/19 09:17:21;;;;;;;6.37;5.97;;;25.90;99.90;;;;;;5071249;28;20447;-79
2023/08/19 09:19:48;;;;;;;6.43;5.83;;;25.90;99.90;;;;;;5076288;28;20508;-80
2023/08/19 09:22:22;;;;;;;5.63;5.13;;;26.10;99.90;;;;;;5069213;28;20524;-79
2023/08/19 09:24:50;;;;;;;5.80;5.40;;;26.00;99.90;;;;;;5079759;28;20458;-79
2023/08/19 09:27:27;;;;;;;6.00;5.50;;;26.30;99.90;;;;;;5076128;28;21006;-79
2023/08/19 09:29:54;;;;;;;6.97;6.37;;;26.20;99.90;;;;;;5074157;28;20962;-79
2023/08/19 09:32:32;;;;;;;5.20;4.77;;;26.30;99.90;;;;;;5073001;28;20447;-79
2023/08/19 09:35:04;;;;;;;6.53;6.03;;;26.90;99.90;;;;;;5085245;28;20478;-79
2023/08/19 09:37:33;;;;;;;5.40;5.00;;;26.80;99.90;;;;;;5078492;28;20499;-79
2023/08/19 09:40:00;;;;;;;6.67;5.97;;;26.70;99.90;;;;;;5091162;28;20477;-79
2023/08/19 09:42:28;;;;;;;6.20;5.73;;;26.50;99.90;;;;;;5075376;28;20451;-80
2023/08/19 09:44:55;;;;;;;5.40;5.00;;;27.00;99.90;;;;;;5082874;28;20458;-79
2023/08/19 09:47:23;;;;;;;6.63;6.03;;;27.10;99.90;;;;;;5083210;28;20868;-79
2023/08/19 09:49:53;;;;;;;5.33;5.03;;;27.40;99.90;;;;;;5082803;28;20521;-79
2023/08/19 09:52:20;;;;;;;5.20;4.90;;;27.40;99.90;;;;;;5068965;28;20495;-79
2023/08/19 09:54:53;;;;;;;5.63;5.13;;;27.40;99.90;;;;;;5071218;28;20455;-79
2023/08/19 09:57:30;;;;;;;4.97;4.57;;;28.00;99.90;;;;;;5079230;28;20465;-79
2023/08/19 09:59:57;;;;;;;5.77;5.30;;;28.10;99.90;;;;;;5071621;28;20556;-79
2023/08/19 10:02:25;;;;;;;4.70;4.40;;;28.00;99.90;;;;;;5072394;28;20548;-79
2023/08/19 10:04:53;;;;;;;6.37;5.77;;;27.60;99.90;;;;;;5069278;28;20463;-79
2023/08/19 10:07:22;;;;;;;5.87;5.27;;;27.70;99.90;;;;;;5066016;28;20458;-79
2023/08/19 10:09:52;;;;;;;5.87;5.47;;;27.60;99.90;;;;;;5080283;28;20558;-79
2023/08/19 10:12:20;;;;;;;5.13;4.53;;;27.40;99.90;;;;;;5071306;28;20463;-78
2023/08/19 10:14:50;;;;;;;5.60;5.17;;;27.50;99.90;;;;;;5084978;28;20942;-79
2023/08/19 10:17:18;;;;;;;4.13;3.83;;;27.70;99.90;;;;;;5075850;28;20474;-79
2023/08/19 10:19:51;;;;;;;5.63;5.23;;;28.10;99.90;;;;;;5075957;28;20521;-79
2023/08/19 10:22:20;;;;;;;4.97;4.67;;;28.10;99.90;;;;;;5080933;28;20470;-79
2023/08/19 10:24:48;;;;;;;4.83;4.50;;;28.30;99.90;;;;;;5066145;28;20460;-79
2023/08/19 10:27:20;;;;;;;4.93;4.70;;;28.70;99.90;;;;;;5076303;28;20556;-80
2023/08/19 10:29:56;;;;;;;4.93;4.60;;;28.80;99.00;;;;;;5073201;28;21198;-78
2023/08/19 10:32:33;;;;;;;6.10;5.10;;;28.80;98.40;;;;;;5076024;28;20474;-78
2023/08/19 10:35:08;;;;;;;4.50;4.20;;;28.80;96.90;;;;;;5083709;28;20503;-77
2023/08/19 10:37:35;;;;;;;6.33;5.73;;;28.70;97.20;;;;;;5080673;28;20477;-78
2023/08/19 10:40:11;;;;;;;5.30;4.90;;;28.60;98.30;;;;;;5083295;28;20498;-78
2023/08/19 10:42:40;;;;;;;4.67;4.30;;;28.90;98.50;;;;;;5078017;28;20464;-78
2023/08/19 10:45:15;;;;;;;5.63;5.23;;;29.00;97.20;;;;;;5080719;28;21160;-82
2023/08/19 10:47:43;;;;;;;6.03;4.13;;;28.80;96.00;;;;;;5084800;28;20464;-82
2023/08/19 10:50:11;;;;;;;5.20;4.70;;;28.90;95.30;;;;;;5081901;28;20566;-81
2023/08/19 10:52:58;;;;;;;4.17;3.77;;;28.70;95.40;;;;;;5074555;28;20447;-81
2023/08/19 10:55:25;;;;;;;5.20;4.80;;;28.80;96.20;;;;;;5072720;28;20459;-83
2023/08/19 10:57:56;;;;;;;4.70;4.27;;;28.80;96.10;;;;;;5074499;28;20489;-82
2023/08/19 11:00:24;;;;;;;5.40;5.10;;;28.90;96.00;;;;;;5075609;28;20530;-81
2023/08/19 11:02:51;;;;;;;4.23;3.93;;;28.70;95.70;;;;;;5076424;28;20489;-80
2023/08/19 11:05:25;;;;;;;5.57;5.10;;;28.90;98.10;;;;;;5078847;28;20892;-81
2023/08/19 11:07:52;;;;;;;5.07;4.67;;;28.90;97.50;;;;;;5073131;28;20458;-80
2023/08/19 11:10:19;;;;;;;6.23;5.20;;;28.80;96.60;;;;;;5075334;28;20525;-82
2023/08/19 11:12:48;;;;;;;3.60;3.40;;;28.80;96.90;;;;;;5075838;28;20555;-82
2023/08/19 11:15:24;;;;;;;3.90;3.70;;;29.20;96.10;;;;;;5082279;28;20523;-82
2023/08/19 11:17:51;;;;;;;3.97;3.73;;;29.50;94.40;;;;;;5078846;28;20459;-81
2023/08/19 11:20:19;;;;;;;3.07;2.87;;;29.80;94.60;;;;;;5077502;28;21014;-81
2023/08/19 11:22:46;;;;;;;4.67;4.27;;;29.80;95.40;;;;;;5083991;28;20467;-81
2023/08/19 11:25:13;;;;;;;4.30;3.83;;;29.80;94.00;;;;;;5072122;28;20455;-82
2023/08/19 11:27:41;;;;;;;4.57;4.30;;;30.00;95.30;;;;;;5083190;28;20447;-84
2023/08/19 11:30:10;;;;;;;4.50;4.20;;;29.90;95.00;;;;;;5089560;28;20595;-81
2023/08/19 11:32:39;;;;;;;5.33;4.23;;;30.00;92.70;;;;;;5088787;28;20659;-83
2023/08/19 11:35:07;;;;;;;4.10;3.80;;;29.70;94.20;;;;;;5097220;28;20486;-81
2023/08/19 11:37:34;;;;;;;4.90;4.60;;;29.50;95.20;;;;;;5082052;28;21206;-81
2023/08/19 11:40:06;;;;;;;6.93;5.03;;;29.50;96.10;;;;;;5078737;28;20495;-81
2023/08/19 11:42:33;;;;;;;3.67;3.47;;;29.90;92.70;;;;;;5085388;28;20551;-84
2023/08/19 11:45:00;;;;;;;2.27;2.17;;;30.00;89.50;;;;;;5085590;28;20464;-81
2023/08/19 11:47:33;;;;;;;2.17;2.07;;;30.00;85.00;;;;;;5082595;28;21205;-80
2023/08/19 11:50:04;;;;;;;2.80;2.60;;;30.30;80.20;;;;;;5080804;28;20455;-83
2023/08/19 11:52:33;;;;;;;2.57;2.43;;;30.40;81.10;;;;;;5078805;28;20435;-82
2023/08/19 11:55:00;;;;;;;3.50;3.30;;;30.40;87.00;;;;;;5075351;28;20494;-81
2023/08/19 11:57:32;;;;;;;4.70;3.40;;;30.50;86.40;;;;;;5073953;28;20962;-80
2023/08/19 11:59:59;;;;;;;2.97;2.87;;;30.40;88.40;;;;;;5087828;28;20500;-82
2023/08/19 12:02:27;;;;;;;3.47;3.27;;;30.40;90.90;;;;;;5070384;28;20440;-81
2023/08/19 12:04:55;;;;;;;3.90;3.50;;;30.40;90.60;;;;;;5068863;28;20530;-82
2023/08/19 12:07:31;;;;;;;3.10;2.90;;;30.60;88.00;;;;;;5078196;28;20469;-82
2023/08/19 12:09:58;;;;;;;3.13;2.93;;;30.60;84.60;;;;;;5076663;28;20941;-82
2023/08/19 12:12:25;;;;;;;2.90;2.80;;;30.50;86.90;;;;;;5075799;28;20487;-83
2023/08/19 12:14:53;;;;;;;3.20;3.00;;;30.10;83.30;;;;;;5073965;28;20498;-84
2023/08/19 12:17:20;;;;;;;2.07;1.97;;;30.50;84.20;;;;;;5072847;28;20456;-84
2023/08/19 12:19:47;;;;;;;2.63;2.43;;;30.50;79.30;;;;;;5073908;28;20444;-82
2023/08/19 12:22:14;;;;;;;3.60;3.30;;;30.40;80.20;;;;;;5079700;28;20551;-82
2023/08/19 12:24:42;;;;;;;3.67;3.33;;;30.40;80.40;;;;;;5070701;28;20467;-82
2023/08/19 12:27:09;;;;;;;3.17;2.87;;;30.50;81.80;;;;;;5070962;28;20482;-85
2023/08/19 12:29:36;;;;;;;2.13;2.00;;;30.60;79.70;;;;;;5069701;28;20463;-83
2023/08/19 12:32:03;;;;;;;2.20;2.10;;;30.70;82.80;;;;;;5073359;28;20481;-82
2023/08/19 12:34:30;;;;;;;2.57;2.40;;;30.50;78.50;;;;;;5084768;28;20563;-84
2023/08/19 12:36:57;;;;;;;7.00;3.13;;;30.70;84.20;;;;;;5086560;28;20471;-83
2023/08/19 12:39:25;;;;;;;2.97;2.37;;;30.80;80.00;;;;;;5081638;28;20612;-83
2023/08/19 12:41:53;;;;;;;2.90;2.70;;;30.40;74.30;;;;;;5082802;28;21160;-82
2023/08/19 12:44:20;;;;;;;2.83;2.50;;;30.10;73.90;;;;;;5075847;28;21035;-82
2023/08/19 12:46:49;;;;;;;3.00;2.80;;;30.30;74.40;;;;;;5082122;28;20532;-82
2023/08/19 12:49:16;;;;;;;2.50;2.30;;;30.30;75.60;;;;;;5080943;28;20452;-82
2023/08/19 12:51:43;;;;;;;3.30;3.10;;;30.60;71.00;;;;;;5086488;28;20516;-82
2023/08/19 12:54:10;;;;;;;2.73;2.63;;;30.50;74.00;;;;;;5089235;28;20459;-81